createdAt,value
2018-06-12T00:00:05.051Z,84.03
2018-06-12T00:02:34.504Z,78.77
2018-06-12T00:05:03.883Z,78.00
2018-06-12T00:07:33.319Z,81.53
2018-06-12T00:10:02.670Z,83.57
2018-06-12T00:12:32.198Z,85.07
2018-06-12T00:15:01.420Z,81.97
2018-06-12T00:17:30.847Z,76.47
2018-06-12T00:20:00.211Z,78.17
2018-06-12T00:22:29.536Z,82.50
2018-06-12T00:24:58.936Z,85.33
2018-06-12T00:27:28.324Z,77.83
2018-06-12T00:29:57.721Z,79.10
2018-06-12T00:32:27.084Z,79.07
2018-06-12T00:34:56.452Z,80.33
2018-06-12T00:37:25.789Z,83.73
2018-06-12T00:39:55.165Z,81.70
2018-06-12T00:42:24.540Z,75.43
2018-06-12T00:44:53.917Z,88.00
2018-06-12T00:47:23.320Z,87.93
2018-06-12T00:49:52.792Z,80.90
2018-06-12T00:52:22.252Z,86.00
2018-06-12T00:54:51.596Z,77.20
2018-06-12T00:57:20.924Z,81.30
2018-06-12T00:59:50.357Z,96.90
2018-06-12T01:02:19.723Z,76.77
2018-06-12T01:04:49.153Z,67.80
2018-06-12T01:07:18.554Z,81.87
2018-06-12T01:09:48.096Z,74.83
2018-06-12T01:12:17.511Z,75.53
2018-06-12T01:14:46.951Z,76.43
2018-06-12T01:17:16.120Z,77.30
2018-06-12T01:19:45.395Z,66.33
2018-06-12T01:22:14.771Z,60.53
2018-06-12T01:24:44.167Z,72.40
2018-06-12T01:27:13.552Z,67.67
2018-06-12T01:29:42.936Z,68.80
2018-06-12T01:32:12.339Z,72.03
2018-06-12T01:34:41.772Z,75.70
2018-06-12T01:37:11.196Z,72.73
2018-06-12T01:39:40.646Z,76.40
2018-06-12T01:42:10.055Z,88.23
2018-06-12T01:44:39.483Z,86.40
2018-06-12T01:47:08.840Z,74.23
2018-06-12T01:49:38.238Z,79.33
2018-06-12T01:52:07.752Z,86.53
2018-06-12T01:54:37.138Z,85.80
2018-06-12T01:57:06.613Z,77.47
2018-06-12T01:59:35.972Z,69.90
2018-06-12T02:02:05.438Z,78.17
2018-06-12T02:04:34.787Z,74.50
2018-06-12T02:07:04.187Z,76.33
2018-06-12T02:09:33.679Z,71.73
2018-06-12T02:12:03.208Z,72.83
2018-06-12T02:14:32.874Z,71.57
2018-06-12T02:17:02.667Z,76.00
2018-06-12T02:19:32.072Z,65.33
2018-06-12T02:22:01.491Z,71.67
2018-06-12T02:24:30.820Z,81.37
2018-06-12T02:27:00.235Z,67.07
2018-06-12T02:29:29.688Z,71.00
2018-06-12T02:31:59.144Z,82.13
2018-06-12T02:34:28.534Z,82.63
2018-06-12T02:36:57.936Z,80.07
2018-06-12T02:39:27.331Z,83.97
2018-06-12T02:41:56.735Z,73.57
2018-06-12T02:44:26.188Z,68.50
2018-06-12T02:46:55.238Z,62.73
2018-06-12T02:49:24.468Z,60.60
2018-06-12T02:51:53.865Z,58.00
2018-06-12T02:54:31.659Z,68.20
2018-06-12T02:57:01.013Z,64.47
2018-06-12T02:59:30.317Z,65.47
2018-06-12T03:02:00.613Z,57.20
2018-06-12T03:04:30.328Z,55.80
2018-06-12T03:06:59.663Z,53.13
2018-06-12T03:09:29.122Z,49.23
2018-06-12T03:11:58.485Z,41.37
2018-06-12T03:14:27.823Z,38.10
2018-06-12T03:16:56.841Z,37.80
2018-06-12T03:19:26.040Z,33.43
2018-06-12T03:21:55.393Z,29.40
2018-06-12T03:24:24.727Z,33.20
2018-06-12T03:26:54.084Z,32.47
2018-06-12T03:29:23.399Z,31.70
2018-06-12T03:31:52.799Z,28.63
2018-06-12T03:34:22.097Z,27.00
2018-06-12T03:36:51.394Z,36.83
2018-06-12T03:39:20.696Z,30.60
2018-06-12T03:41:49.997Z,34.33
2018-06-12T03:44:19.374Z,33.67
2018-06-12T03:46:48.687Z,33.77
2018-06-12T03:49:17.996Z,35.47
2018-06-12T03:51:47.308Z,26.90
2018-06-12T03:54:16.639Z,28.70
2018-06-12T03:56:45.978Z,32.13
2018-06-12T03:59:15.290Z,30.50
2018-06-12T04:01:44.743Z,30.73
2018-06-12T04:04:14.119Z,32.20
2018-06-12T04:06:43.587Z,34.70
2018-06-12T04:09:12.949Z,31.37
2018-06-12T04:11:42.298Z,29.00
2018-06-12T04:14:11.630Z,30.20
2018-06-12T04:16:40.958Z,30.27
2018-06-12T04:19:10.017Z,26.97
2018-06-12T04:21:39.313Z,30.67
2018-06-12T04:24:08.690Z,20.70
2018-06-12T04:26:38.055Z,22.40
2018-06-12T04:29:07.393Z,20.37
2018-06-12T04:31:36.818Z,22.60
2018-06-12T04:34:06.150Z,21.23
2018-06-12T04:36:35.491Z,27.10
2018-06-12T04:39:06.739Z,21.40
2018-06-12T04:41:36.146Z,31.50
2018-06-12T04:44:05.578Z,28.10
2018-06-12T04:46:34.904Z,20.90
2018-06-12T04:49:04.280Z,19.90
2018-06-12T04:51:33.650Z,22.83
2018-06-12T04:54:02.950Z,20.47
2018-06-12T04:56:32.399Z,21.27
2018-06-12T04:59:01.722Z,20.60
2018-06-12T05:01:31.146Z,26.30
2018-06-12T05:04:00.570Z,18.43
2018-06-12T05:06:29.913Z,21.10
2018-06-12T05:08:59.281Z,16.10
2018-06-12T05:11:28.626Z,15.73
2018-06-12T05:13:57.935Z,15.50
2018-06-12T05:16:27.305Z,18.27
2018-06-12T05:18:56.635Z,21.63
2018-06-12T05:21:26.526Z,17.00
2018-06-12T05:23:55.704Z,17.13
2018-06-12T05:26:25.120Z,14.33
2018-06-12T05:28:54.487Z,15.03
2018-06-12T05:31:24.869Z,16.60
2018-06-12T05:33:54.157Z,23.03
2018-06-12T05:36:23.631Z,11.43
2018-06-12T05:38:53.045Z,12.77
2018-06-12T05:41:22.493Z,14.53
2018-06-12T05:43:52.906Z,11.57
2018-06-12T05:46:22.288Z,15.53
2018-06-12T05:48:51.756Z,12.70
2018-06-12T05:51:21.210Z,15.50
2018-06-12T05:53:50.545Z,15.93
2018-06-12T05:56:19.914Z,12.03
2018-06-12T05:58:50.314Z,13.07
2018-06-12T06:01:20.521Z,13.33
2018-06-12T06:03:49.719Z,13.80
2018-06-12T06:06:19.115Z,11.03
2018-06-12T06:08:48.573Z,13.67
2018-06-12T06:11:17.982Z,12.07
2018-06-12T06:13:47.357Z,13.63
2018-06-12T06:16:16.615Z,16.27
2018-06-12T06:18:45.905Z,14.20
2018-06-12T06:21:14.846Z,13.40
2018-06-12T06:23:44.034Z,13.07
2018-06-12T06:26:13.309Z,11.40
2018-06-12T06:28:42.619Z,16.57
2018-06-12T06:31:12.024Z,13.73
2018-06-12T06:33:41.320Z,19.00
2018-06-12T06:36:10.627Z,16.97
2018-06-12T06:38:39.628Z,12.27
2018-06-12T06:41:08.781Z,12.33
2018-06-12T06:43:38.101Z,12.33
2018-06-12T06:46:07.379Z,11.77
2018-06-12T06:48:36.758Z,11.87
2018-06-12T06:51:06.258Z,16.33
2018-06-12T06:53:35.636Z,14.20
2018-06-12T06:56:05.076Z,13.93
2018-06-12T06:58:34.358Z,17.03
2018-06-12T07:01:03.777Z,12.37
2018-06-12T07:03:33.105Z,12.50
2018-06-12T07:06:02.440Z,20.63
2018-06-12T07:08:31.746Z,15.23
2018-06-12T07:11:02.185Z,11.67
2018-06-12T07:13:31.500Z,14.83
2018-06-12T07:16:00.843Z,17.63
2018-06-12T07:18:30.173Z,16.27
2018-06-12T07:21:06.017Z,15.03
2018-06-12T07:23:35.450Z,13.17
2018-06-12T07:26:04.849Z,16.27
2018-06-12T07:28:34.251Z,14.30
2018-06-12T07:31:03.565Z,15.23
2018-06-12T07:33:32.906Z,19.43
2018-06-12T07:36:02.292Z,19.67
2018-06-12T07:38:32.661Z,15.13
2018-06-12T07:41:02.005Z,13.30
2018-06-12T07:43:31.419Z,16.70
2018-06-12T07:46:00.685Z,20.77
2018-06-12T07:48:30.030Z,22.80
2018-06-12T07:50:59.321Z,18.70
2018-06-12T07:53:28.666Z,23.03
2018-06-12T07:55:58.009Z,19.10
2018-06-12T07:58:27.338Z,18.87
2018-06-12T08:00:56.662Z,20.93
2018-06-12T08:03:25.963Z,29.40
2018-06-12T08:05:55.346Z,22.63
2018-06-12T08:08:24.684Z,20.67
2018-06-12T08:10:54.891Z,20.30
2018-06-12T08:13:24.219Z,14.70
2018-06-12T08:15:53.549Z,19.50
2018-06-12T08:18:22.938Z,19.77
2018-06-12T08:20:52.330Z,22.37
2018-06-12T08:23:21.717Z,21.50
2018-06-12T08:25:50.984Z,15.57
2018-06-12T08:28:21.375Z,20.87
2018-06-12T08:30:50.671Z,18.53
2018-06-12T08:33:20.025Z,14.47
2018-06-12T08:35:49.318Z,18.60
2018-06-12T08:38:18.622Z,16.27
2018-06-12T08:40:47.947Z,18.40
2018-06-12T08:43:17.229Z,15.30
2018-06-12T08:45:47.609Z,18.07
2018-06-12T08:48:16.907Z,18.23
2018-06-12T08:50:46.295Z,14.70
2018-06-12T08:53:15.597Z,17.90
2018-06-12T08:55:44.915Z,21.50
2018-06-12T08:58:14.211Z,19.17
2018-06-12T09:00:43.553Z,17.30
2018-06-12T09:03:12.839Z,15.57
2018-06-12T09:05:42.127Z,18.83
2018-06-12T09:08:11.429Z,19.60
2018-06-12T09:10:40.712Z,24.93
2018-06-12T09:13:10.342Z,18.67
2018-06-12T09:15:39.638Z,14.10
2018-06-12T09:18:08.969Z,18.17
2018-06-12T09:20:38.288Z,18.57
2018-06-12T09:23:07.555Z,17.73
2018-06-12T09:25:36.836Z,16.10
2018-06-12T09:28:06.229Z,15.93
2018-06-12T09:30:35.489Z,20.23
2018-06-12T09:33:04.903Z,18.90
2018-06-12T09:35:34.287Z,19.43
2018-06-12T09:38:03.594Z,16.50
2018-06-12T09:40:32.869Z,17.10
2018-06-12T09:43:01.881Z,19.43
2018-06-12T09:45:31.047Z,16.07
2018-06-12T09:48:00.333Z,17.30
2018-06-12T09:50:29.590Z,16.43
2018-06-12T09:52:58.974Z,16.33
2018-06-12T09:55:28.240Z,15.57
2018-06-12T09:57:57.519Z,17.40
2018-06-12T10:00:32.160Z,20.97
2018-06-12T10:03:01.504Z,19.90
2018-06-12T10:05:30.823Z,23.90
2018-06-12T10:08:01.275Z,17.50
2018-06-12T10:10:30.595Z,20.37
2018-06-12T10:12:59.924Z,14.90
2018-06-12T10:15:29.250Z,16.40
2018-06-12T10:17:58.660Z,16.80
2018-06-12T10:20:28.055Z,15.60
2018-06-12T10:22:57.444Z,16.67
2018-06-12T10:25:26.764Z,23.40
2018-06-12T10:27:56.117Z,14.80
2018-06-12T10:30:25.476Z,14.47
2018-06-12T10:32:54.833Z,19.97
2018-06-12T10:35:23.831Z,14.47
2018-06-12T10:37:53.032Z,19.00
2018-06-12T10:40:22.375Z,20.80
2018-06-12T10:42:51.766Z,13.43
2018-06-12T10:45:21.113Z,21.63
2018-06-12T10:47:50.467Z,16.83
2018-06-12T10:50:19.905Z,17.00
2018-06-12T10:52:49.259Z,13.07
2018-06-12T10:55:18.291Z,15.73
2018-06-12T10:57:47.567Z,15.10
2018-06-12T11:00:16.912Z,12.80
2018-06-12T11:02:46.329Z,15.97
2018-06-12T11:05:15.693Z,17.67
2018-06-12T11:07:44.990Z,14.40
2018-06-12T11:10:14.315Z,16.67
2018-06-12T11:12:43.651Z,13.27
2018-06-12T11:15:12.990Z,15.07
2018-06-12T11:17:42.315Z,14.50
2018-06-12T11:20:11.728Z,14.57
2018-06-12T11:22:41.064Z,17.53
2018-06-12T11:25:10.401Z,13.10
2018-06-12T11:27:39.735Z,12.80
2018-06-12T11:30:09.055Z,15.03
2018-06-12T11:32:38.400Z,16.93
2018-06-12T11:35:07.704Z,16.97
2018-06-12T11:37:37.089Z,12.83
2018-06-12T11:40:06.673Z,13.67
2018-06-12T11:42:37.073Z,14.87
2018-06-12T11:45:06.457Z,12.17
2018-06-12T11:47:35.865Z,21.47
2018-06-12T11:50:05.195Z,16.40
2018-06-12T11:52:34.537Z,16.97
2018-06-12T11:55:03.903Z,46.43
2018-06-12T11:57:33.261Z,13.00
2018-06-12T12:00:02.693Z,13.13
2018-06-12T12:02:32.034Z,14.60
2018-06-12T12:05:01.365Z,17.83
2018-06-12T12:07:30.764Z,12.43
2018-06-12T12:10:00.085Z,11.50
2018-06-12T12:12:29.434Z,34.93
2018-06-12T12:14:58.710Z,17.93
2018-06-12T12:17:28.027Z,12.27
2018-06-12T12:19:57.407Z,14.27
2018-06-12T12:22:26.723Z,13.80
2018-06-12T12:24:55.730Z,11.80
2018-06-12T12:27:24.916Z,18.70
2018-06-12T12:29:54.252Z,12.80
2018-06-12T12:32:23.533Z,13.63
2018-06-12T12:34:52.884Z,17.53
2018-06-12T12:37:22.191Z,13.87
2018-06-12T12:39:51.511Z,14.70
2018-06-12T12:42:20.882Z,17.07
2018-06-12T12:44:50.283Z,15.10
2018-06-12T12:47:19.730Z,23.33
2018-06-12T12:49:49.047Z,15.50
2018-06-12T12:52:18.413Z,17.20
2018-06-12T12:54:49.742Z,14.20
2018-06-12T12:57:19.139Z,12.70
2018-06-12T12:59:48.473Z,10.80
2018-06-12T13:02:17.813Z,10.80
2018-06-12T13:04:47.211Z,10.37
2018-06-12T13:07:16.663Z,12.03
2018-06-12T13:09:45.986Z,11.90
2018-06-12T13:12:15.350Z,11.80
2018-06-12T13:14:44.641Z,11.27
2018-06-12T13:17:14.039Z,9.63
2018-06-12T13:19:43.433Z,11.30
2018-06-12T13:22:12.729Z,12.17
2018-06-12T13:24:42.145Z,10.40
2018-06-12T13:27:11.564Z,11.50
2018-06-12T13:29:41.978Z,13.23
2018-06-12T13:32:11.399Z,7.90
2018-06-12T13:34:40.768Z,9.13
2018-06-12T13:37:10.075Z,9.57
2018-06-12T13:39:39.390Z,10.97
2018-06-12T13:42:08.809Z,14.83
2018-06-12T13:44:38.116Z,11.60
2018-06-12T13:47:07.495Z,12.57
2018-06-12T13:49:36.760Z,9.53
2018-06-12T13:52:06.090Z,9.03
2018-06-12T13:54:35.392Z,10.10
2018-06-12T13:57:04.803Z,10.13
2018-06-12T13:59:34.199Z,11.43
2018-06-12T14:02:03.515Z,9.57
2018-06-12T14:07:32.596Z,11.17
2018-06-12T14:10:01.883Z,10.33
2018-06-12T14:12:31.160Z,10.50
2018-06-12T14:15:00.444Z,11.10
2018-06-12T14:17:29.702Z,22.60
2018-06-12T14:20:00.139Z,10.00
2018-06-12T14:22:29.520Z,12.53
2018-06-12T14:24:58.795Z,9.93
2018-06-12T14:27:28.143Z,12.30
2018-06-12T14:29:57.543Z,10.33
2018-06-12T14:32:26.793Z,9.50
2018-06-12T14:34:56.085Z,13.53
2018-06-12T14:37:25.346Z,8.50
2018-06-12T14:39:54.627Z,10.00
2018-06-12T14:45:22.133Z,8.90
2018-06-12T14:47:51.514Z,11.43
2018-06-12T14:50:20.915Z,8.60
2018-06-12T14:52:50.196Z,8.60
2018-06-12T14:55:19.505Z,8.40
2018-06-12T14:57:48.777Z,8.40
2018-06-12T15:00:18.125Z,10.80
2018-06-12T15:02:48.570Z,13.33
2018-06-12T15:05:17.999Z,15.80
2018-06-12T15:07:47.260Z,9.53
2018-06-12T15:10:16.660Z,10.17
2018-06-12T15:12:45.994Z,12.60
2018-06-12T15:15:15.301Z,10.53
2018-06-12T15:17:44.630Z,16.23
2018-06-12T15:20:13.958Z,12.37
2018-06-12T15:22:43.410Z,14.63
2018-06-12T15:25:12.802Z,17.40
2018-06-12T15:27:42.101Z,13.73
2018-06-12T15:30:12.526Z,10.50
2018-06-12T15:32:41.938Z,10.50
2018-06-12T15:35:11.765Z,19.87
2018-06-12T15:37:47.262Z,14.23
2018-06-12T15:40:17.639Z,11.63
2018-06-12T15:42:47.153Z,12.77
2018-06-12T15:45:16.176Z,15.47
2018-06-12T15:47:49.393Z,14.43
2018-06-12T15:50:20.803Z,14.80
2018-06-12T15:52:50.816Z,13.57
2018-06-12T15:55:23.011Z,11.60
2018-06-12T15:57:59.257Z,15.07
2018-06-12T16:00:38.171Z,11.53
2018-06-12T16:03:15.671Z,16.97
2018-06-12T16:05:45.876Z,15.40
2018-06-12T16:08:15.258Z,24.83
2018-06-12T16:10:44.543Z,13.37
2018-06-12T16:13:13.854Z,13.10
2018-06-12T16:15:44.281Z,9.93
2018-06-12T16:18:13.589Z,18.70
2018-06-12T16:20:42.941Z,15.03
2018-06-12T16:23:12.205Z,12.03
2018-06-12T16:25:41.521Z,9.60
2018-06-12T16:28:10.805Z,19.43
2018-06-12T16:30:40.105Z,18.27
2018-06-12T16:33:09.377Z,16.83
2018-06-12T16:35:38.678Z,16.07
2018-06-12T16:38:08.009Z,11.87
2018-06-12T16:40:38.477Z,13.33
2018-06-12T16:43:07.766Z,14.07
2018-06-12T16:45:36.814Z,10.90
2018-06-12T16:48:06.437Z,13.50
2018-06-12T16:50:35.758Z,15.03
2018-06-12T16:53:05.088Z,11.00
2018-06-12T16:55:34.469Z,13.90
2018-06-12T16:58:03.829Z,11.50
2018-06-12T17:00:33.178Z,11.30
2018-06-12T17:03:04.586Z,8.27
2018-06-12T17:05:33.956Z,7.70
2018-06-12T17:08:03.305Z,8.73
2018-06-12T17:10:32.657Z,14.70
2018-06-12T17:13:02.058Z,7.40
2018-06-12T17:15:31.448Z,8.53
2018-06-12T17:18:00.776Z,6.73
2018-06-12T17:20:30.126Z,6.90
2018-06-12T17:22:59.470Z,5.87
2018-06-12T17:25:28.870Z,7.67
2018-06-12T17:27:58.316Z,6.50
2018-06-12T17:30:27.647Z,7.83
2018-06-12T17:32:56.940Z,7.00
2018-06-12T17:35:26.274Z,9.73
2018-06-12T17:37:55.693Z,10.63
2018-06-12T17:40:25.057Z,6.17
2018-06-12T17:42:54.358Z,12.83
2018-06-12T17:45:23.737Z,8.20
2018-06-12T17:47:53.086Z,7.07
2018-06-12T17:50:22.421Z,6.23
2018-06-12T17:52:52.008Z,8.00
2018-06-12T17:55:21.312Z,8.97
2018-06-12T17:57:52.652Z,7.63
2018-06-12T18:00:21.974Z,6.17
2018-06-12T18:02:51.326Z,7.90
2018-06-12T18:05:20.652Z,8.53
2018-06-12T18:07:51.060Z,12.40
2018-06-12T18:10:20.417Z,11.77
2018-06-12T18:12:49.802Z,12.43
2018-06-12T18:15:19.137Z,8.40
2018-06-12T18:17:48.423Z,8.70
2018-06-12T18:20:21.402Z,8.40
2018-06-12T18:22:50.774Z,6.13
2018-06-12T18:25:20.191Z,10.93
2018-06-12T18:27:49.513Z,9.50
2018-06-12T18:30:18.869Z,7.57
2018-06-12T18:32:48.280Z,10.03
2018-06-12T18:35:17.592Z,9.03
2018-06-12T18:37:47.020Z,7.40
2018-06-12T18:40:16.333Z,11.73
2018-06-12T18:42:45.666Z,14.63
2018-06-12T18:45:14.990Z,9.80
2018-06-12T18:47:44.299Z,7.50
2018-06-12T18:50:13.623Z,10.53
2018-06-12T18:52:42.938Z,9.30
2018-06-12T18:55:12.253Z,19.80
2018-06-12T18:57:41.623Z,8.20
2018-06-12T19:00:11.057Z,17.33
2018-06-12T19:02:40.438Z,12.97
2018-06-12T19:05:09.774Z,9.90
2018-06-12T19:07:39.143Z,11.70
2018-06-12T19:10:08.472Z,11.73
2018-06-12T19:12:37.827Z,8.03
2018-06-12T19:15:07.237Z,10.27
2018-06-12T19:17:36.636Z,9.60
2018-06-12T19:20:06.094Z,17.03
2018-06-12T19:22:35.552Z,9.37
2018-06-12T19:25:04.974Z,8.40
2018-06-12T19:27:34.385Z,9.67
2018-06-12T19:30:03.788Z,17.87
2018-06-12T19:32:33.112Z,9.70
2018-06-12T19:35:02.428Z,9.37
2018-06-12T19:37:31.814Z,11.90
2018-06-12T19:40:01.139Z,9.80
2018-06-12T19:42:30.472Z,12.20
2018-06-12T19:45:00.890Z,11.77
2018-06-12T19:47:30.154Z,16.70
2018-06-12T19:49:59.552Z,8.83
2018-06-12T19:52:28.854Z,15.23
2018-06-12T19:54:58.169Z,8.27
2018-06-12T19:57:27.429Z,10.80
2018-06-12T19:59:56.761Z,14.03
2018-06-12T20:02:26.090Z,13.03
2018-06-12T20:04:55.490Z,10.07
2018-06-12T20:07:24.778Z,11.50
2018-06-12T20:09:54.074Z,12.13
2018-06-12T20:12:23.465Z,12.80
2018-06-12T20:14:52.768Z,12.40
2018-06-12T20:17:22.041Z,13.80
2018-06-12T20:19:51.413Z,12.30
2018-06-12T20:22:22.753Z,11.23
2018-06-12T20:24:52.139Z,9.63
2018-06-12T20:27:21.358Z,7.53
2018-06-12T20:29:50.697Z,12.73
2018-06-12T20:32:20.009Z,8.63
2018-06-12T20:34:49.001Z,6.77
2018-06-12T20:37:18.202Z,7.30
2018-06-12T20:39:48.538Z,10.60
2018-06-12T20:42:17.853Z,23.00
2018-06-12T20:44:47.239Z,13.20
2018-06-12T20:47:16.539Z,8.73
2018-06-12T20:49:45.784Z,9.30
2018-06-12T20:52:15.065Z,13.90
2018-06-12T20:54:44.333Z,9.20
2018-06-12T20:57:13.611Z,9.50
2018-06-12T20:59:42.885Z,14.90
2018-06-12T21:02:12.241Z,10.40
2018-06-12T21:04:41.538Z,7.87
2018-06-12T21:07:10.938Z,9.40
2018-06-12T21:09:40.199Z,6.50
2018-06-12T21:12:09.526Z,16.93
2018-06-12T21:14:38.918Z,14.40
2018-06-12T21:17:07.925Z,10.10
2018-06-12T21:19:37.161Z,7.90
2018-06-12T21:22:06.512Z,8.23
2018-06-12T21:24:35.814Z,9.43
2018-06-12T21:27:05.295Z,7.27
2018-06-12T21:29:34.609Z,11.50
2018-06-12T21:32:03.945Z,8.10
2018-06-12T21:34:33.229Z,10.77
2018-06-12T21:37:02.573Z,10.67
2018-06-12T21:39:31.969Z,7.70
2018-06-12T21:42:01.348Z,12.93
2018-06-12T21:44:30.637Z,5.13
2018-06-12T21:46:59.948Z,6.93
2018-06-12T21:49:29.257Z,8.57
2018-06-12T21:51:58.526Z,4.27
2018-06-12T21:54:27.865Z,9.03
2018-06-12T21:56:57.178Z,14.83
2018-06-12T21:59:26.487Z,9.30
2018-06-12T22:01:55.933Z,17.10
2018-06-12T22:04:25.273Z,10.43
2018-06-12T22:06:54.578Z,11.53
2018-06-12T22:09:23.973Z,15.50
2018-06-12T22:11:53.309Z,6.70
2018-06-12T22:14:26.976Z,7.63
2018-06-12T22:16:57.088Z,4.73
2018-06-12T22:19:26.099Z,10.80
2018-06-12T22:21:55.256Z,5.20
2018-06-12T22:24:27.235Z,9.90
2018-06-12T22:26:56.580Z,9.80
2018-06-12T22:29:25.898Z,9.03
2018-06-12T22:31:55.189Z,8.23
2018-06-12T22:34:24.582Z,6.40
2018-06-12T22:36:53.853Z,9.73
2018-06-12T22:39:23.175Z,13.23
2018-06-12T22:41:52.481Z,9.03
2018-06-12T22:44:21.920Z,4.53
2018-06-12T22:46:51.202Z,7.07
2018-06-12T22:49:20.518Z,9.10
2018-06-12T22:51:49.808Z,10.83
2018-06-12T22:54:19.143Z,6.53
2018-06-12T22:56:48.453Z,9.30
2018-06-12T22:59:17.880Z,9.17
2018-06-12T23:01:47.190Z,7.60
2018-06-12T23:04:16.584Z,6.30
2018-06-12T23:06:45.936Z,7.63
2018-06-12T23:09:15.194Z,8.17
2018-06-12T23:11:44.490Z,6.90
2018-06-12T23:14:13.845Z,10.40
2018-06-12T23:16:43.210Z,10.33
2018-06-12T23:19:12.544Z,13.63
2018-06-12T23:21:53.137Z,9.33
2018-06-12T23:24:22.420Z,5.90
2018-06-12T23:26:51.754Z,6.53
2018-06-12T23:29:21.024Z,7.77
2018-06-12T23:31:50.318Z,9.07
2018-06-12T23:34:20.670Z,10.07
2018-06-12T23:36:49.939Z,10.20
2018-06-12T23:39:19.260Z,14.73
2018-06-12T23:41:48.488Z,8.50
2018-06-12T23:44:17.865Z,5.10
2018-06-12T23:46:47.116Z,11.60
2018-06-12T23:49:16.401Z,6.60
2018-06-12T23:51:45.796Z,16.93
2018-06-12T23:54:15.125Z,7.23
2018-06-12T23:56:44.872Z,11.10
2018-06-12T23:59:13.897Z,7.27
